createdAt,value
2022-12-31T00:00:43.531Z,21.41
2022-12-31T00:01:48.034Z,21.39
2022-12-31T00:02:52.602Z,21.39
2022-12-31T00:03:57.257Z,21.35
2022-12-31T00:05:01.523Z,21.37
2022-12-31T00:06:05.811Z,21.38
2022-12-31T00:07:10.066Z,21.35
2022-12-31T00:08:14.298Z,21.35
2022-12-31T00:09:18.556Z,21.34
2022-12-31T00:10:22.823Z,21.32
2022-12-31T00:11:27.057Z,21.29
2022-12-31T00:12:31.357Z,21.35
2022-12-31T00:13:35.633Z,21.36
2022-12-31T00:14:39.912Z,21.38
2022-12-31T00:15:44.169Z,21.36
2022-12-31T00:16:48.689Z,21.33
2022-12-31T00:17:53.134Z,21.29
2022-12-31T00:18:57.654Z,21.28
2022-12-31T00:20:01.925Z,21.32
2022-12-31T00:21:06.238Z,21.32
2022-12-31T00:22:10.502Z,21.34
2022-12-31T00:23:14.782Z,21.36
2022-12-31T00:24:19.045Z,21.35
2022-12-31T00:25:23.290Z,21.37
2022-12-31T00:26:27.531Z,21.36
2022-12-31T00:27:31.861Z,21.35
2022-12-31T00:28:36.161Z,21.34
2022-12-31T00:29:40.447Z,21.35
2022-12-31T00:30:44.763Z,21.35
2022-12-31T00:31:49.156Z,21.35
2022-12-31T00:32:53.425Z,21.34
2022-12-31T00:33:57.653Z,21.34
2022-12-31T00:35:04.278Z,21.33
2022-12-31T00:36:08.519Z,21.34
2022-12-31T00:37:12.811Z,21.34
2022-12-31T00:38:17.082Z,21.33
2022-12-31T00:39:21.350Z,21.33
2022-12-31T00:40:25.630Z,21.3
2022-12-31T00:41:29.885Z,21.27
2022-12-31T00:42:34.141Z,21.24
2022-12-31T00:43:38.403Z,21.28
2022-12-31T00:44:42.716Z,21.25
2022-12-31T00:45:46.998Z,21.29
2022-12-31T00:46:51.355Z,21.28
2022-12-31T00:47:55.606Z,21.26
2022-12-31T00:48:59.894Z,21.27
2022-12-31T00:50:04.191Z,21.23
2022-12-31T00:51:08.436Z,21.27
2022-12-31T00:52:12.734Z,21.32
2022-12-31T00:53:17.040Z,21.35
2022-12-31T00:54:21.282Z,21.36
2022-12-31T00:55:25.609Z,21.37
2022-12-31T00:56:29.942Z,21.36
2022-12-31T00:57:34.218Z,21.34
2022-12-31T00:58:38.730Z,21.33
2022-12-31T00:59:42.993Z,21.35
2022-12-31T01:00:47.226Z,21.35
2022-12-31T01:01:51.560Z,21.28
2022-12-31T01:02:56.273Z,21.28
2022-12-31T01:04:00.915Z,21.22
2022-12-31T01:05:05.231Z,21.24
2022-12-31T01:06:09.480Z,21.22
2022-12-31T01:07:13.743Z,21.2
2022-12-31T01:08:18.043Z,21.16
2022-12-31T01:09:22.338Z,21.16
2022-12-31T01:10:26.593Z,21.21
2022-12-31T01:11:30.837Z,21.17
2022-12-31T01:12:35.096Z,21.16
2022-12-31T01:13:39.394Z,21.14
2022-12-31T01:14:43.641Z,21.18
2022-12-31T01:15:47.955Z,21.15
2022-12-31T01:16:52.335Z,21.18
2022-12-31T01:17:56.639Z,21.21
2022-12-31T01:19:00.901Z,21.21
2022-12-31T01:20:05.240Z,21.18
2022-12-31T01:21:09.480Z,21.16
2022-12-31T01:22:13.742Z,21.14
2022-12-31T01:23:18.007Z,21.15
2022-12-31T01:24:22.280Z,21.12
2022-12-31T01:25:26.611Z,21.13
2022-12-31T01:26:30.844Z,21.13
2022-12-31T01:27:35.127Z,21.13
2022-12-31T01:28:39.395Z,21.12
2022-12-31T01:29:43.662Z,21.1
2022-12-31T01:30:47.993Z,21.08
2022-12-31T01:31:52.451Z,21.12
2022-12-31T01:32:56.694Z,21.14
2022-12-31T01:34:00.951Z,21.17
2022-12-31T01:35:05.191Z,21.17
2022-12-31T01:36:09.452Z,21.13
2022-12-31T01:37:13.731Z,21.14
2022-12-31T01:38:17.967Z,21.15
2022-12-31T01:39:22.212Z,21.12
2022-12-31T01:40:26.475Z,21.13
2022-12-31T01:41:30.715Z,21.13
2022-12-31T01:42:34.966Z,21.17
2022-12-31T01:43:39.238Z,21.17
2022-12-31T01:44:43.471Z,21.16
2022-12-31T01:45:47.709Z,21.13
2022-12-31T01:46:52.013Z,21.17
2022-12-31T01:47:56.278Z,21.2
2022-12-31T01:49:00.542Z,21.15
2022-12-31T01:50:04.784Z,21.14
2022-12-31T01:51:09.022Z,21.09
2022-12-31T01:52:13.341Z,21.09
2022-12-31T01:53:17.602Z,21.1
2022-12-31T01:54:21.927Z,21.13
2022-12-31T01:55:26.237Z,21.12
2022-12-31T01:56:30.505Z,21.12
2022-12-31T01:57:34.752Z,21.17
2022-12-31T01:58:38.995Z,21.2
2022-12-31T01:59:43.250Z,21.2
2022-12-31T02:00:47.507Z,21.2
2022-12-31T02:01:51.906Z,21.21
2022-12-31T02:02:56.667Z,21.2
2022-12-31T02:04:01.027Z,21.21
2022-12-31T02:05:05.294Z,21.18
2022-12-31T02:06:09.556Z,21.13
2022-12-31T02:07:13.815Z,21.11
2022-12-31T02:08:18.151Z,21.1
2022-12-31T02:09:22.395Z,21.14
2022-12-31T02:10:26.714Z,21.18
2022-12-31T02:11:31.001Z,21.2
2022-12-31T02:12:35.350Z,21.23
2022-12-31T02:13:39.659Z,21.22
2022-12-31T02:14:44.019Z,21.25
2022-12-31T02:15:48.305Z,21.22
2022-12-31T02:16:52.707Z,21.2
2022-12-31T02:17:56.989Z,21.2
2022-12-31T02:19:01.261Z,21.2
2022-12-31T02:20:05.521Z,21.21
2022-12-31T02:21:09.781Z,21.19
2022-12-31T02:22:14.195Z,21.14
2022-12-31T02:23:18.665Z,21.11
2022-12-31T02:24:23.270Z,21.08
2022-12-31T02:25:27.539Z,21.07
2022-12-31T02:26:34.068Z,21.08
2022-12-31T02:27:39.340Z,21.07
2022-12-31T02:28:43.659Z,21.05
2022-12-31T02:29:47.921Z,21.1
2022-12-31T02:30:52.187Z,21.08
2022-12-31T02:31:56.657Z,21.13
2022-12-31T02:33:02.729Z,21.09
2022-12-31T02:34:07.217Z,21.08
2022-12-31T02:35:11.502Z,21.05
2022-12-31T02:36:15.763Z,21.07
2022-12-31T02:37:19.998Z,21.08
2022-12-31T02:38:24.259Z,21.07
2022-12-31T02:39:28.519Z,21.06
2022-12-31T02:40:32.782Z,21.01
2022-12-31T02:41:37.321Z,20.99
2022-12-31T02:42:41.586Z,21
2022-12-31T02:43:45.862Z,21.04
2022-12-31T02:44:50.148Z,21.03
2022-12-31T02:45:54.409Z,21.01
2022-12-31T02:46:58.658Z,21.05
2022-12-31T02:48:02.896Z,21.09
2022-12-31T02:49:07.136Z,21.11
2022-12-31T02:50:11.395Z,21.09
2022-12-31T02:51:15.662Z,21.04
2022-12-31T02:52:19.891Z,21.06
2022-12-31T02:53:24.130Z,21.06
2022-12-31T02:54:28.364Z,21.02
2022-12-31T02:55:32.637Z,21.03
2022-12-31T02:56:36.930Z,21.04
2022-12-31T02:57:43.440Z,21.01
2022-12-31T02:58:47.672Z,20.98
2022-12-31T02:59:51.959Z,20.98
2022-12-31T03:00:56.275Z,21
2022-12-31T03:02:00.962Z,21.04
2022-12-31T03:03:05.524Z,21.05
2022-12-31T03:04:09.759Z,21.03
2022-12-31T03:05:14.043Z,21.05
2022-12-31T03:06:18.312Z,21.03
2022-12-31T03:07:22.617Z,21
2022-12-31T03:08:26.883Z,21.05
2022-12-31T03:09:31.152Z,21.06
2022-12-31T03:10:35.437Z,21.1
2022-12-31T03:11:39.754Z,21.05
2022-12-31T03:12:44.049Z,21.08
2022-12-31T03:13:48.335Z,21.07
2022-12-31T03:14:52.562Z,21.06
2022-12-31T03:15:56.822Z,21.04
2022-12-31T03:17:01.264Z,21.09
2022-12-31T03:18:05.534Z,21.12
2022-12-31T03:19:10.020Z,21.12
2022-12-31T03:20:14.285Z,21.12
2022-12-31T03:21:18.844Z,21.12
2022-12-31T03:22:23.114Z,21.13
2022-12-31T03:23:27.462Z,21.12
2022-12-31T03:24:31.731Z,21.13
2022-12-31T03:25:35.997Z,21.12
2022-12-31T03:26:40.258Z,21.13
2022-12-31T03:27:44.516Z,21.13
2022-12-31T03:28:48.817Z,21.14
2022-12-31T03:29:53.065Z,21.13
2022-12-31T03:30:57.301Z,21.11
2022-12-31T03:32:01.762Z,21.12
2022-12-31T03:33:06.068Z,21.11
2022-12-31T03:34:10.328Z,21.13
2022-12-31T03:35:14.603Z,21.15
2022-12-31T03:36:19.907Z,21.14
2022-12-31T03:37:24.133Z,21.14
2022-12-31T03:38:28.359Z,21.13
2022-12-31T03:39:32.640Z,21.11
2022-12-31T03:40:36.864Z,21.11
2022-12-31T03:41:41.122Z,21.12
2022-12-31T03:42:45.370Z,21.07
2022-12-31T03:43:49.614Z,21.07
2022-12-31T03:44:53.944Z,21.11
2022-12-31T03:45:58.394Z,21.08
2022-12-31T03:47:02.803Z,21.04
2022-12-31T03:48:07.094Z,21.07
2022-12-31T03:49:11.400Z,21.04
2022-12-31T03:50:15.672Z,21.02
2022-12-31T03:51:19.950Z,20.99
2022-12-31T03:52:24.215Z,20.98
2022-12-31T03:53:28.471Z,21
2022-12-31T03:54:32.742Z,21.02
2022-12-31T03:55:37.016Z,21.04
2022-12-31T03:56:41.321Z,21.02
2022-12-31T03:57:45.580Z,20.99
2022-12-31T03:58:49.837Z,20.97
2022-12-31T03:59:54.092Z,20.97
2022-12-31T04:00:59.509Z,20.95
2022-12-31T04:02:04.317Z,20.93
2022-12-31T04:03:09.037Z,20.99
2022-12-31T04:04:13.485Z,21.02
2022-12-31T04:05:17.777Z,21.01
2022-12-31T04:06:22.096Z,21.04
2022-12-31T04:07:26.352Z,21
2022-12-31T04:08:30.606Z,20.96
2022-12-31T04:09:34.849Z,20.98
2022-12-31T04:10:39.134Z,20.99
2022-12-31T04:11:43.377Z,20.97
2022-12-31T04:12:47.623Z,21
2022-12-31T04:13:51.907Z,21
2022-12-31T04:14:56.177Z,20.98
2022-12-31T04:16:00.502Z,20.98
2022-12-31T04:17:04.934Z,20.99
2022-12-31T04:18:09.184Z,21.01
2022-12-31T04:19:13.528Z,21
2022-12-31T04:20:17.784Z,20.98
2022-12-31T04:21:22.071Z,20.96
2022-12-31T04:22:26.344Z,20.97
2022-12-31T04:23:30.603Z,20.95
2022-12-31T04:24:34.874Z,20.91
2022-12-31T04:25:39.116Z,20.89
2022-12-31T04:26:43.427Z,20.9
2022-12-31T04:27:47.693Z,20.93
2022-12-31T04:28:51.957Z,20.92
2022-12-31T04:29:56.194Z,20.92
2022-12-31T04:31:00.486Z,20.9
2022-12-31T04:32:04.778Z,20.88
2022-12-31T04:33:09.183Z,20.86
2022-12-31T04:34:13.466Z,20.86
2022-12-31T04:35:17.746Z,20.85
2022-12-31T04:36:22.006Z,20.85
2022-12-31T04:37:26.264Z,20.84
2022-12-31T04:38:30.557Z,20.84
2022-12-31T04:39:34.824Z,20.88
2022-12-31T04:40:39.067Z,20.89
2022-12-31T04:41:43.303Z,20.9
2022-12-31T04:42:47.586Z,20.87
2022-12-31T04:43:51.870Z,20.86
2022-12-31T04:44:56.160Z,20.85
2022-12-31T04:46:00.462Z,20.89
2022-12-31T04:47:04.859Z,20.91
2022-12-31T04:48:09.162Z,20.88
2022-12-31T04:49:13.446Z,20.9
2022-12-31T04:50:17.747Z,20.95
2022-12-31T04:51:21.988Z,20.99
2022-12-31T04:52:26.519Z,20.92
2022-12-31T04:53:30.779Z,20.92
2022-12-31T04:54:35.018Z,20.91
2022-12-31T04:55:39.707Z,20.92
2022-12-31T04:56:43.949Z,20.9
2022-12-31T04:57:48.211Z,20.87
2022-12-31T04:58:52.519Z,20.9
2022-12-31T04:59:56.754Z,20.88
2022-12-31T05:01:01.108Z,20.85
2022-12-31T05:02:05.857Z,20.91
2022-12-31T05:03:11.021Z,20.91
2022-12-31T05:04:15.779Z,20.93
2022-12-31T05:05:20.058Z,20.92
2022-12-31T05:06:24.322Z,21
2022-12-31T05:07:28.612Z,21.05
2022-12-31T05:08:32.990Z,21.12
2022-12-31T05:09:37.240Z,21.2
2022-12-31T05:10:41.483Z,21.28
2022-12-31T05:11:46.771Z,21.38
2022-12-31T05:12:51.032Z,21.48
2022-12-31T05:13:55.340Z,21.55
2022-12-31T05:14:59.632Z,21.64
2022-12-31T05:16:03.890Z,21.7
2022-12-31T05:17:08.161Z,21.74
2022-12-31T05:18:12.414Z,21.78
2022-12-31T05:19:16.740Z,21.8
2022-12-31T05:20:21.200Z,21.82
2022-12-31T05:21:25.470Z,21.85
2022-12-31T05:22:29.733Z,21.87
2022-12-31T05:23:34.081Z,21.89
2022-12-31T05:24:38.361Z,21.88
2022-12-31T05:25:42.671Z,21.92
2022-12-31T05:26:46.883Z,21.94
2022-12-31T05:27:51.118Z,21.95
2022-12-31T05:28:55.369Z,21.95
2022-12-31T05:29:59.652Z,21.96
2022-12-31T05:31:04.092Z,21.98
2022-12-31T05:32:08.686Z,21.99
2022-12-31T05:33:12.967Z,22
2022-12-31T05:34:17.201Z,21.98
2022-12-31T05:35:21.520Z,22
2022-12-31T05:36:25.836Z,22.02
2022-12-31T05:37:30.096Z,22.02
2022-12-31T05:38:34.331Z,22.02
2022-12-31T05:39:38.570Z,22.03
2022-12-31T05:40:42.847Z,22.05
2022-12-31T05:41:47.151Z,22.02
2022-12-31T05:42:51.411Z,22.03
2022-12-31T05:43:55.682Z,22.04
2022-12-31T05:44:59.955Z,22.04
2022-12-31T05:46:04.312Z,22.04
2022-12-31T05:47:08.831Z,22.03
2022-12-31T05:48:13.197Z,22.02
2022-12-31T05:49:17.642Z,21.99
2022-12-31T05:50:21.946Z,21.97
2022-12-31T05:51:26.254Z,21.93
2022-12-31T05:52:30.514Z,21.92
2022-12-31T05:53:34.765Z,21.9
2022-12-31T05:54:38.986Z,21.87
2022-12-31T05:55:43.282Z,21.86
2022-12-31T05:56:47.549Z,21.84
2022-12-31T05:57:51.831Z,21.83
2022-12-31T05:58:56.097Z,21.81
2022-12-31T06:00:00.335Z,21.8
2022-12-31T06:01:04.637Z,21.78
2022-12-31T06:02:09.006Z,21.78
2022-12-31T06:03:13.417Z,21.74
2022-12-31T06:04:18.172Z,21.73
2022-12-31T06:05:26.033Z,21.74
2022-12-31T06:06:30.568Z,21.73
2022-12-31T06:07:34.823Z,21.71
2022-12-31T06:08:39.100Z,21.7
2022-12-31T06:09:43.389Z,21.67
2022-12-31T06:10:47.652Z,21.66
2022-12-31T06:11:51.930Z,21.65
2022-12-31T06:12:56.231Z,21.65
2022-12-31T06:14:00.539Z,21.63
2022-12-31T06:15:04.776Z,21.59
2022-12-31T06:16:09.297Z,21.59
2022-12-31T06:17:13.826Z,21.6
2022-12-31T06:18:18.261Z,21.6
2022-12-31T06:19:22.596Z,21.61
2022-12-31T06:20:26.872Z,21.61
2022-12-31T06:21:31.137Z,21.6
2022-12-31T06:22:35.383Z,21.6
2022-12-31T06:23:39.622Z,21.6
2022-12-31T06:24:43.873Z,21.59
2022-12-31T06:25:48.147Z,21.59
2022-12-31T06:26:52.452Z,21.58
2022-12-31T06:27:56.706Z,21.57
2022-12-31T06:29:00.928Z,21.56
2022-12-31T06:30:05.165Z,21.56
2022-12-31T06:31:09.443Z,21.53
2022-12-31T06:32:13.960Z,21.54
2022-12-31T06:33:18.252Z,21.54
2022-12-31T06:34:22.683Z,21.51
2022-12-31T06:35:26.916Z,21.53
2022-12-31T06:36:31.184Z,21.51
2022-12-31T06:37:35.540Z,21.5
2022-12-31T06:38:39.812Z,21.49
2022-12-31T06:39:44.098Z,21.52
2022-12-31T06:40:48.422Z,21.5
2022-12-31T06:41:52.659Z,21.51
2022-12-31T06:43:00.032Z,21.51
2022-12-31T06:44:04.546Z,21.51
2022-12-31T06:45:09.051Z,21.5
2022-12-31T06:46:13.423Z,21.48
2022-12-31T06:47:17.917Z,21.5
2022-12-31T06:48:22.150Z,21.5
2022-12-31T06:49:26.444Z,21.47
2022-12-31T06:50:30.740Z,21.44
2022-12-31T06:51:34.982Z,21.47
2022-12-31T06:52:39.272Z,21.47
2022-12-31T06:53:43.542Z,21.44
2022-12-31T06:54:47.786Z,21.45
2022-12-31T06:55:53.060Z,21.44
2022-12-31T06:56:57.355Z,21.45
2022-12-31T06:58:01.629Z,21.47
2022-12-31T06:59:05.901Z,21.48
2022-12-31T07:00:10.196Z,21.49
2022-12-31T07:01:14.503Z,21.49
2022-12-31T07:02:19.105Z,21.49
2022-12-31T07:03:23.550Z,21.47
2022-12-31T07:04:27.899Z,21.48
2022-12-31T07:05:32.115Z,21.49
2022-12-31T07:06:36.332Z,21.49
2022-12-31T07:07:40.606Z,21.47
2022-12-31T07:08:44.888Z,21.48
2022-12-31T07:09:49.150Z,21.48
2022-12-31T07:10:53.426Z,21.49
2022-12-31T07:11:57.700Z,21.51
2022-12-31T07:13:01.968Z,21.5
2022-12-31T07:14:06.218Z,21.5
2022-12-31T07:15:10.462Z,21.52
2022-12-31T07:16:14.770Z,21.5
2022-12-31T07:17:19.197Z,21.5
2022-12-31T07:18:23.458Z,21.5
2022-12-31T07:19:27.727Z,21.5
2022-12-31T07:20:31.969Z,21.49
2022-12-31T07:21:36.210Z,21.49
2022-12-31T07:22:40.506Z,21.49
2022-12-31T07:23:44.753Z,21.45
2022-12-31T07:24:49.026Z,21.45
2022-12-31T07:25:53.277Z,21.44
2022-12-31T07:26:57.523Z,21.41
2022-12-31T07:28:01.845Z,21.43
2022-12-31T07:29:06.113Z,21.42
2022-12-31T07:30:10.365Z,21.43
2022-12-31T07:31:14.692Z,21.45
2022-12-31T07:32:19.046Z,21.47
2022-12-31T07:33:23.338Z,21.45
2022-12-31T07:34:27.561Z,21.46
2022-12-31T07:35:35.179Z,21.44
2022-12-31T07:36:39.712Z,21.47
2022-12-31T07:37:43.978Z,21.48
2022-12-31T07:38:48.291Z,21.47
2022-12-31T07:39:52.556Z,21.47
2022-12-31T07:40:57.939Z,21.46
2022-12-31T07:42:12.103Z,21.46
2022-12-31T07:43:16.371Z,21.44
2022-12-31T07:44:20.663Z,21.46
2022-12-31T07:45:24.918Z,21.46
2022-12-31T07:46:29.230Z,21.45
2022-12-31T07:47:33.704Z,21.47
2022-12-31T07:48:37.965Z,21.48
2022-12-31T07:49:42.212Z,21.5
2022-12-31T07:50:46.512Z,21.5
2022-12-31T07:51:50.814Z,21.5
2022-12-31T07:52:55.060Z,21.51
2022-12-31T07:54:01.593Z,21.5
2022-12-31T07:55:11.021Z,21.51
2022-12-31T07:56:15.331Z,21.53
2022-12-31T07:57:19.630Z,21.53
2022-12-31T07:58:23.896Z,21.53
2022-12-31T07:59:28.405Z,21.53
2022-12-31T08:00:32.716Z,21.52
2022-12-31T08:01:37.168Z,21.55
2022-12-31T08:02:42.026Z,21.53
2022-12-31T08:03:46.460Z,21.5
2022-12-31T08:04:50.687Z,21.51
2022-12-31T08:05:55.031Z,21.5
2022-12-31T08:06:59.307Z,21.49
2022-12-31T08:08:03.543Z,21.48
2022-12-31T08:09:07.848Z,21.49
2022-12-31T08:10:17.459Z,21.47
2022-12-31T08:11:22.015Z,21.48
2022-12-31T08:12:26.324Z,21.46
2022-12-31T08:13:30.686Z,21.44
2022-12-31T08:14:34.932Z,21.45
2022-12-31T08:15:39.198Z,21.47
2022-12-31T08:16:43.560Z,21.47
2022-12-31T08:17:47.970Z,21.45
2022-12-31T08:18:52.455Z,21.44
2022-12-31T08:19:56.721Z,21.44
2022-12-31T08:21:01.036Z,21.42
2022-12-31T08:22:05.295Z,21.42
2022-12-31T08:23:09.529Z,21.4
2022-12-31T08:24:14.815Z,21.4
2022-12-31T08:25:19.078Z,21.4
2022-12-31T08:26:23.392Z,21.38
2022-12-31T08:27:27.631Z,21.39
2022-12-31T08:28:31.899Z,21.37
2022-12-31T08:29:36.152Z,21.36
2022-12-31T08:30:40.450Z,21.35
2022-12-31T08:31:44.768Z,21.36
2022-12-31T08:32:49.211Z,21.39
2022-12-31T08:33:53.499Z,21.38
2022-12-31T08:35:01.788Z,21.38
2022-12-31T08:36:06.143Z,21.39
2022-12-31T08:37:10.428Z,21.4
2022-12-31T08:38:14.791Z,21.4
2022-12-31T08:39:19.025Z,21.39
2022-12-31T08:40:23.316Z,21.4
2022-12-31T08:41:27.819Z,21.41
2022-12-31T08:42:32.097Z,21.4
2022-12-31T08:43:36.365Z,21.38
2022-12-31T08:44:40.578Z,21.38
2022-12-31T08:45:44.918Z,21.38
2022-12-31T08:46:49.309Z,21.37
2022-12-31T08:47:58.068Z,21.36
2022-12-31T08:49:03.907Z,21.37
2022-12-31T08:50:08.129Z,21.4
2022-12-31T08:51:12.378Z,21.38
2022-12-31T08:52:16.637Z,21.39
2022-12-31T08:53:20.861Z,21.39
2022-12-31T08:54:25.161Z,21.4
2022-12-31T08:55:29.406Z,21.4
2022-12-31T08:56:33.677Z,21.41
2022-12-31T08:57:37.952Z,21.41
2022-12-31T08:58:42.225Z,21.42
2022-12-31T08:59:46.540Z,21.4
2022-12-31T09:00:50.849Z,21.41
2022-12-31T09:01:55.467Z,21.42
2022-12-31T09:03:00.157Z,21.42
2022-12-31T09:04:04.481Z,21.43
2022-12-31T09:05:08.957Z,21.42
2022-12-31T09:06:13.237Z,21.43
2022-12-31T09:07:17.576Z,21.43
2022-12-31T09:08:21.848Z,21.46
2022-12-31T09:09:26.081Z,21.49
2022-12-31T09:10:30.349Z,21.48
2022-12-31T09:11:34.576Z,21.46
2022-12-31T09:12:38.900Z,21.47
2022-12-31T09:13:43.163Z,21.49
2022-12-31T09:14:47.435Z,21.5
2022-12-31T09:15:51.721Z,21.51
2022-12-31T09:16:55.966Z,21.49
2022-12-31T09:18:00.323Z,21.51
2022-12-31T09:19:04.584Z,21.52
2022-12-31T09:20:08.854Z,21.51
2022-12-31T09:21:13.146Z,21.6
2022-12-31T09:22:17.368Z,21.66
2022-12-31T09:23:21.615Z,21.66
2022-12-31T09:24:25.894Z,21.69
2022-12-31T09:25:30.165Z,21.66
2022-12-31T09:26:34.452Z,21.62
2022-12-31T09:27:38.738Z,21.6
2022-12-31T09:28:43.033Z,21.56
2022-12-31T09:29:47.286Z,21.51
2022-12-31T09:30:51.508Z,21.48
2022-12-31T09:31:55.847Z,21.47
2022-12-31T09:33:01.257Z,21.43
2022-12-31T09:34:05.626Z,21.45
2022-12-31T09:35:09.926Z,21.47
2022-12-31T09:36:14.185Z,21.44
2022-12-31T09:37:18.473Z,21.4
2022-12-31T09:38:22.745Z,21.36
2022-12-31T09:39:27.073Z,21.4
2022-12-31T09:40:31.356Z,21.45
2022-12-31T09:41:35.943Z,21.44
2022-12-31T09:42:40.178Z,21.44
2022-12-31T09:43:44.452Z,21.42
2022-12-31T09:44:48.689Z,21.38
2022-12-31T09:45:52.992Z,21.37
2022-12-31T09:46:57.372Z,21.33
2022-12-31T09:48:01.617Z,21.32
2022-12-31T09:49:05.884Z,21.29
2022-12-31T09:50:10.146Z,21.33
2022-12-31T09:51:14.392Z,21.3
2022-12-31T09:52:27.343Z,21.26
2022-12-31T09:53:31.594Z,21.27
2022-12-31T09:54:35.839Z,21.27
2022-12-31T09:55:40.108Z,21.28
2022-12-31T09:56:44.357Z,21.27
2022-12-31T09:57:48.623Z,21.32
2022-12-31T09:58:52.897Z,21.3
2022-12-31T09:59:57.142Z,21.29
2022-12-31T10:01:01.575Z,21.24
2022-12-31T10:02:06.450Z,21.22
2022-12-31T10:03:12.501Z,21.2
2022-12-31T10:04:16.872Z,21.21
2022-12-31T10:05:21.154Z,21.19
2022-12-31T10:06:25.413Z,21.2
2022-12-31T10:07:29.674Z,21.2
2022-12-31T10:08:34.083Z,21.18
2022-12-31T10:09:38.334Z,21.18
2022-12-31T10:10:42.604Z,21.18
2022-12-31T10:11:46.836Z,21.21
2022-12-31T10:12:51.202Z,21.26
2022-12-31T10:13:55.492Z,21.36
2022-12-31T10:14:59.778Z,21.4
2022-12-31T10:16:04.086Z,21.36
2022-12-31T10:17:08.472Z,21.39
2022-12-31T10:18:12.917Z,21.43
2022-12-31T10:19:17.213Z,21.45
2022-12-31T10:20:21.473Z,21.49
2022-12-31T10:21:25.728Z,21.48
2022-12-31T10:22:29.992Z,21.47
2022-12-31T10:23:34.240Z,21.49
2022-12-31T10:24:38.503Z,21.49
2022-12-31T10:25:42.802Z,21.5
2022-12-31T10:26:53.321Z,21.5
2022-12-31T10:27:57.759Z,21.49
2022-12-31T10:29:02.059Z,21.49
2022-12-31T10:30:06.556Z,21.5
2022-12-31T10:31:10.846Z,21.48
2022-12-31T10:32:15.304Z,21.47
2022-12-31T10:33:19.840Z,21.47
2022-12-31T10:34:24.393Z,21.47
2022-12-31T10:35:28.618Z,21.47
2022-12-31T10:36:32.908Z,21.47
2022-12-31T10:37:37.202Z,21.46
2022-12-31T10:38:41.734Z,21.47
2022-12-31T10:39:45.995Z,21.48
2022-12-31T10:40:50.270Z,21.51
2022-12-31T10:41:54.525Z,21.48
2022-12-31T10:42:58.873Z,21.5
2022-12-31T10:44:03.121Z,21.51
2022-12-31T10:45:07.425Z,21.51
2022-12-31T10:46:11.747Z,21.5
2022-12-31T10:47:25.122Z,21.51
2022-12-31T10:48:29.369Z,21.52
2022-12-31T10:49:33.673Z,21.54
2022-12-31T10:50:37.931Z,21.55
2022-12-31T10:51:42.233Z,21.52
2022-12-31T10:52:46.480Z,21.49
2022-12-31T10:53:50.744Z,21.47
2022-12-31T10:54:55.026Z,21.46
2022-12-31T10:55:59.350Z,21.46
2022-12-31T10:57:03.608Z,21.48
2022-12-31T10:58:07.897Z,21.49
2022-12-31T10:59:12.174Z,21.56
2022-12-31T11:00:16.555Z,21.56
2022-12-31T11:01:21.251Z,21.55
2022-12-31T11:02:26.224Z,21.57
2022-12-31T11:03:31.332Z,21.57
2022-12-31T11:04:35.760Z,21.56
2022-12-31T11:05:40.065Z,21.57
2022-12-31T11:06:44.374Z,21.56
2022-12-31T11:07:48.800Z,21.57
2022-12-31T11:08:53.050Z,21.56
2022-12-31T11:09:57.290Z,21.57
2022-12-31T11:11:01.538Z,21.59
2022-12-31T11:12:05.837Z,21.58
2022-12-31T11:13:10.111Z,21.58
2022-12-31T11:14:14.340Z,21.59
2022-12-31T11:15:18.622Z,21.58
2022-12-31T11:16:22.981Z,21.58
2022-12-31T11:17:27.453Z,21.57
2022-12-31T11:18:31.681Z,21.57
2022-12-31T11:19:35.925Z,21.58
2022-12-31T11:20:40.189Z,21.56
2022-12-31T11:21:44.535Z,21.54
2022-12-31T11:22:48.821Z,21.55
2022-12-31T11:23:55.368Z,21.55
2022-12-31T11:24:59.663Z,21.55
2022-12-31T11:26:03.956Z,21.55
2022-12-31T11:27:08.217Z,21.55
2022-12-31T11:28:12.499Z,21.55
2022-12-31T11:29:16.750Z,21.56
2022-12-31T11:30:21.015Z,21.56
2022-12-31T11:31:25.301Z,21.55
2022-12-31T11:32:29.736Z,21.55
2022-12-31T11:33:34.012Z,21.55
2022-12-31T11:34:38.306Z,21.57
2022-12-31T11:35:43.542Z,21.59
2022-12-31T11:36:47.798Z,21.56
2022-12-31T11:37:52.076Z,21.56
2022-12-31T11:38:56.358Z,21.55
2022-12-31T11:40:00.596Z,21.55
2022-12-31T11:41:04.851Z,21.55
2022-12-31T11:42:09.156Z,21.55
2022-12-31T11:43:13.426Z,21.57
2022-12-31T11:44:17.737Z,21.56
2022-12-31T11:45:21.995Z,21.56
2022-12-31T11:46:26.311Z,21.57
2022-12-31T11:47:30.760Z,21.59
2022-12-31T11:48:34.998Z,21.59
2022-12-31T11:49:39.273Z,21.59
2022-12-31T11:50:43.793Z,21.61
2022-12-31T11:51:50.574Z,21.62
2022-12-31T11:52:55.056Z,21.63
2022-12-31T11:54:00.312Z,21.63
2022-12-31T11:55:04.622Z,21.63
2022-12-31T11:56:08.871Z,21.65
2022-12-31T11:57:13.152Z,21.66
2022-12-31T11:58:17.443Z,21.65
2022-12-31T11:59:21.725Z,21.67
2022-12-31T12:00:26.019Z,21.67
2022-12-31T12:01:30.377Z,21.69
2022-12-31T12:02:34.913Z,21.69
2022-12-31T12:03:39.352Z,21.68
2022-12-31T12:04:43.986Z,21.69
2022-12-31T12:05:48.285Z,21.69
2022-12-31T12:06:52.566Z,21.71
2022-12-31T12:07:56.855Z,21.7
2022-12-31T12:09:01.114Z,21.69
2022-12-31T12:10:06.402Z,21.69
2022-12-31T12:11:10.652Z,21.7
2022-12-31T12:12:14.894Z,21.7
2022-12-31T12:13:19.201Z,21.7
2022-12-31T12:14:23.469Z,21.7
2022-12-31T12:15:27.732Z,21.69
2022-12-31T12:16:32.015Z,21.7
2022-12-31T12:17:36.464Z,21.7
2022-12-31T12:18:40.821Z,21.69
2022-12-31T12:19:45.112Z,21.68
2022-12-31T12:20:49.455Z,21.67
2022-12-31T12:21:53.726Z,21.67
2022-12-31T12:22:57.977Z,21.66
2022-12-31T12:24:03.256Z,21.68
2022-12-31T12:25:07.555Z,21.67
2022-12-31T12:26:11.838Z,21.67
2022-12-31T12:27:16.108Z,21.67
2022-12-31T12:28:20.407Z,21.64
2022-12-31T12:29:24.631Z,21.64
2022-12-31T12:30:28.929Z,21.63
2022-12-31T12:31:33.192Z,21.6
2022-12-31T12:32:37.764Z,21.6
2022-12-31T12:33:42.006Z,21.59
2022-12-31T12:34:49.774Z,21.59
2022-12-31T12:35:54.425Z,21.56
2022-12-31T12:36:58.690Z,21.57
2022-12-31T12:38:03.008Z,21.58
2022-12-31T12:39:07.294Z,21.59
2022-12-31T12:40:11.630Z,21.6
2022-12-31T12:41:15.908Z,21.59
2022-12-31T12:42:20.156Z,21.59
2022-12-31T12:43:24.441Z,21.58
2022-12-31T12:44:28.689Z,21.58
2022-12-31T12:45:32.932Z,21.57
2022-12-31T12:46:37.233Z,21.6
2022-12-31T12:47:45.920Z,21.62
2022-12-31T12:48:50.171Z,21.64
2022-12-31T12:49:54.436Z,21.64
2022-12-31T12:50:58.946Z,21.59
2022-12-31T12:52:03.188Z,21.59
2022-12-31T12:53:07.455Z,21.57
2022-12-31T12:54:11.754Z,21.55
2022-12-31T12:55:16.040Z,21.56
2022-12-31T12:56:20.310Z,21.54
2022-12-31T12:57:24.597Z,21.54
2022-12-31T12:58:28.858Z,21.55
2022-12-31T12:59:33.139Z,21.55
2022-12-31T13:00:37.434Z,21.53
2022-12-31T13:01:42.062Z,21.55
2022-12-31T13:02:47.173Z,21.57
2022-12-31T13:04:23.674Z,21.58
2022-12-31T13:05:38.496Z,21.57
2022-12-31T13:06:42.815Z,21.57
2022-12-31T13:07:47.039Z,21.59
2022-12-31T13:08:51.341Z,21.6
2022-12-31T13:09:55.609Z,21.6
2022-12-31T13:10:59.875Z,21.62
2022-12-31T13:12:07.664Z,21.6
2022-12-31T13:13:27.608Z,21.6
2022-12-31T13:14:31.909Z,21.6
2022-12-31T13:15:36.169Z,21.63
2022-12-31T13:16:40.462Z,21.63
2022-12-31T13:17:48.136Z,21.61
2022-12-31T13:19:03.930Z,21.61
2022-12-31T13:20:08.205Z,21.63
2022-12-31T13:21:12.554Z,21.63
2022-12-31T13:22:16.861Z,21.63
2022-12-31T13:23:21.098Z,21.6
2022-12-31T13:24:26.404Z,21.6
2022-12-31T13:25:30.714Z,21.6
2022-12-31T13:26:35.004Z,21.59
2022-12-31T13:27:39.293Z,21.58
2022-12-31T13:28:48.858Z,21.59
2022-12-31T13:29:53.100Z,21.57
2022-12-31T13:31:00.470Z,21.57
2022-12-31T13:32:10.474Z,21.59
2022-12-31T13:33:14.723Z,21.58
2022-12-31T13:34:18.964Z,21.57
2022-12-31T13:35:23.288Z,21.6
2022-12-31T13:36:27.855Z,21.63
2022-12-31T13:37:32.127Z,21.63
2022-12-31T13:38:36.389Z,21.62
2022-12-31T13:39:40.641Z,21.61
2022-12-31T13:40:44.886Z,21.62
2022-12-31T13:41:49.196Z,21.6
2022-12-31T13:42:53.473Z,21.63
2022-12-31T13:43:57.746Z,21.63
2022-12-31T13:45:02.026Z,21.6
2022-12-31T13:46:06.300Z,21.63
2022-12-31T13:47:10.823Z,21.64
2022-12-31T13:48:15.051Z,21.64
2022-12-31T13:49:19.334Z,21.65
2022-12-31T13:50:23.609Z,21.66
2022-12-31T13:51:27.897Z,21.66
2022-12-31T13:52:32.190Z,21.66
2022-12-31T13:53:36.447Z,21.66
2022-12-31T13:54:40.709Z,21.67
2022-12-31T13:55:44.976Z,21.7
2022-12-31T13:56:53.116Z,21.7